Time;durP1;ratioP1;P1;durP2;ratioP2;P2;SDS_P1;SDS_P2;PMS_P1;PMS_P2;Temp;Humidity;BMP_temperature;BMP_pressure;BME280_temperature;BME280_humidity;BME280_pressure;Samples;Min_cycle;Max_cycle;Signal;HPM_P1;HPM_P2
2022/04/12 00:01:04;;;;;;;8.37;6.53;;;;;;;;;;5061019;28;20768;-87
2022/04/12 00:03:30;;;;;;;8.87;5.30;;;;;;;;;;5062364;28;20477;-86
2022/04/12 00:05:56;;;;;;;10.17;5.87;;;;;;;;;;5065439;28;20402;-87
2022/04/12 00:08:22;;;;;;;8.43;5.67;;;;;;;;;;5065151;28;20401;-87
2022/04/12 00:10:49;;;;;;;8.10;5.80;;;;;;;;;;5065244;28;20476;-86
2022/04/12 00:13:18;;;;;;;8.53;7.63;;;;;;;;;;5065250;28;20429;-87
2022/04/12 00:15:44;;;;;;;7.20;5.87;;;;;;;;;;5048043;28;20417;-85
2022/04/12 00:20:54;;;;;;;9.23;5.93;;;;;;;;;;5066234;28;20463;-87
2022/04/12 00:23:20;;;;;;;12.27;6.50;;;;;;;;;;5065479;28;20513;-87
2022/04/12 00:25:47;;;;;;;8.33;5.60;;;;;;;;;;5066280;28;20394;-87
2022/04/12 00:28:14;;;;;;;8.97;5.53;;;;;;;;;;5066763;28;20420;-86
2022/04/12 00:30:40;;;;;;;9.13;5.90;;;;;;;;;;5067008;28;20909;-87
2022/04/12 00:33:07;;;;;;;7.60;5.60;;;;;;;;;;5067069;28;20428;-86
2022/04/12 00:35:33;;;;;;;7.43;5.47;;;;;;;;;;5066519;28;20414;-86
2022/04/12 00:37:59;;;;;;;11.03;6.50;;;;;;;;;;5065632;28;20410;-86
2022/04/12 00:40:26;;;;;;;7.37;5.53;;;;;;;;;;5067549;28;20409;-86
2022/04/12 00:42:52;;;;;;;7.10;5.40;;;;;;;;;;5065182;28;20499;-86
2022/04/12 00:45:18;;;;;;;9.50;7.13;;;;;;;;;;5066032;28;20417;-86
2022/04/12 00:47:45;;;;;;;7.23;6.40;;;;;;;;;;5065616;28;20401;-86
2022/04/12 00:50:12;;;;;;;7.40;6.40;;;;;;;;;;5066102;28;20413;-86
2022/04/12 00:52:48;;;;;;;10.97;6.17;;;;;;;;;;5060915;28;20475;-86
2022/04/12 00:55:14;;;;;;;9.47;6.40;;;;;;;;;;5058695;28;20546;-85
2022/04/12 00:57:41;;;;;;;7.93;6.23;;;;;;;;;;5057505;28;20460;-84
2022/04/12 01:00:09;;;;;;;10.57;6.93;;;;;;;;;;5060703;28;20410;-84
2022/04/12 01:02:35;;;;;;;11.60;6.47;;;;;;;;;;5052196;28;20560;-83
2022/04/12 01:05:02;;;;;;;8.10;6.07;;;;;;;;;;5070721;28;20426;-85
2022/04/12 01:07:28;;;;;;;9.60;7.27;;;;;;;;;;5067553;28;20405;-85
2022/04/12 01:09:54;;;;;;;11.17;6.97;;;;;;;;;;5067289;28;20406;-85
2022/04/12 01:12:21;;;;;;;7.23;6.23;;;;;;;;;;5066757;28;20406;-85
2022/04/12 01:14:48;;;;;;;8.53;6.83;;;;;;;;;;5066455;28;20428;-85
2022/04/12 01:17:15;;;;;;;8.87;6.67;;;;;;;;;;5066850;28;20406;-85
2022/04/12 01:19:41;;;;;;;8.60;6.63;;;;;;;;;;5066754;28;20478;-85
2022/04/12 01:22:11;;;;;;;9.53;6.00;;;;;;;;;;5068990;28;20406;-84
2022/04/12 01:24:37;;;;;;;9.00;6.70;;;;;;;;;;5051532;28;20464;-84
2022/04/12 01:27:03;;;;;;;10.13;6.20;;;;;;;;;;5058777;28;20430;-85
2022/04/12 01:29:36;;;;;;;13.53;6.17;;;;;;;;;;5047098;28;20406;-85
2022/04/12 01:32:07;;;;;;;11.60;5.20;;;;;;;;;;5046923;28;20454;-85
2022/04/12 01:34:35;;;;;;;10.73;6.60;;;;;;;;;;5046900;28;20469;-85
2022/04/12 01:37:02;;;;;;;9.17;5.83;;;;;;;;;;5046395;28;20412;-85
2022/04/12 01:39:29;;;;;;;9.30;6.20;;;;;;;;;;5047095;28;20406;-85
2022/04/12 01:41:55;;;;;;;7.73;6.03;;;;;;;;;;5046186;28;20414;-85
2022/04/12 01:44:21;;;;;;;8.10;6.00;;;;;;;;;;5047366;28;20465;-85
2022/04/12 01:46:47;;;;;;;7.27;6.10;;;;;;;;;;5046694;28;20405;-85
2022/04/12 01:49:13;;;;;;;10.60;6.90;;;;;;;;;;5045864;28;20402;-85
2022/04/12 01:51:39;;;;;;;8.60;6.70;;;;;;;;;;5046586;28;20409;-85
2022/04/12 01:54:05;;;;;;;7.30;6.30;;;;;;;;;;5046076;28;20437;-85
2022/04/12 01:56:32;;;;;;;8.90;5.83;;;;;;;;;;5045930;28;20398;-85
2022/04/12 01:58:59;;;;;;;12.63;6.47;;;;;;;;;;5049860;28;20417;-83
2022/04/12 02:01:25;;;;;;;12.67;6.50;;;;;;;;;;5051576;28;20413;-85
2022/04/12 02:03:52;;;;;;;7.37;5.23;;;;;;;;;;5045315;28;20556;-84
2022/04/12 02:06:19;;;;;;;6.27;4.90;;;;;;;;;;5046110;28;20406;-85
2022/04/12 02:08:45;;;;;;;7.13;5.50;;;;;;;;;;5046621;28;20407;-85
2022/04/12 02:11:11;;;;;;;14.60;5.60;;;;;;;;;;5045991;28;20402;-85
2022/04/12 02:13:37;;;;;;;7.30;5.57;;;;;;;;;;5045978;28;20526;-84
2022/04/12 02:16:03;;;;;;;6.97;5.20;;;;;;;;;;5045687;28;20437;-85
2022/04/12 02:18:29;;;;;;;6.87;5.30;;;;;;;;;;5045352;28;20501;-85
2022/04/12 02:20:55;;;;;;;10.67;5.40;;;;;;;;;;5045760;28;20430;-85
2022/04/12 02:23:21;;;;;;;7.97;5.90;;;;;;;;;;5045826;28;20458;-85
2022/04/12 02:25:47;;;;;;;8.50;4.90;;;;;;;;;;5045233;28;20398;-84
2022/04/12 02:28:15;;;;;;;7.60;5.40;;;;;;;;;;5046552;28;20402;-85
2022/04/12 02:30:41;;;;;;;8.57;5.00;;;;;;;;;;5047172;28;20402;-85
2022/04/12 02:33:07;;;;;;;6.30;3.80;;;;;;;;;;5045055;28;20434;-85
2022/04/12 02:35:33;;;;;;;4.80;4.20;;;;;;;;;;5046253;28;20402;-85
2022/04/12 02:37:59;;;;;;;5.30;4.40;;;;;;;;;;5045912;28;20406;-85
2022/04/12 02:40:25;;;;;;;5.80;4.00;;;;;;;;;;5044271;28;20413;-85
2022/04/12 02:42:51;;;;;;;5.90;4.33;;;;;;;;;;5044180;28;20461;-84
2022/04/12 02:45:17;;;;;;;6.37;4.37;;;;;;;;;;5045528;28;20425;-84
2022/04/12 02:47:44;;;;;;;4.30;3.80;;;;;;;;;;5046048;28;20403;-84
2022/04/12 02:50:11;;;;;;;4.40;3.60;;;;;;;;;;5052903;28;20418;-84
2022/04/12 02:52:37;;;;;;;5.60;4.23;;;;;;;;;;5052384;28;20505;-85
2022/04/12 02:55:03;;;;;;;6.57;4.63;;;;;;;;;;5043953;28;20425;-84
2022/04/12 02:57:29;;;;;;;7.20;4.17;;;;;;;;;;5045187;28;20959;-85
2022/04/12 02:59:55;;;;;;;6.53;4.17;;;;;;;;;;5045206;28;20407;-85
2022/04/12 03:02:22;;;;;;;7.10;4.27;;;;;;;;;;5044439;28;20414;-83
2022/04/12 03:04:48;;;;;;;6.87;4.23;;;;;;;;;;5045670;28;20466;-83
2022/04/12 03:07:14;;;;;;;6.17;4.57;;;;;;;;;;5045834;28;20448;-84
2022/04/12 03:09:41;;;;;;;10.30;5.90;;;;;;;;;;5043516;28;20787;-85
2022/04/12 03:12:07;;;;;;;12.33;6.10;;;;;;;;;;5073039;22;20489;-88
2022/04/12 03:14:33;;;;;;;10.17;6.30;;;;;;;;;;5040557;28;20410;-87
2022/04/12 03:16:59;;;;;;;13.10;5.90;;;;;;;;;;5041755;28;20399;-88
2022/04/12 03:19:26;;;;;;;8.13;5.60;;;;;;;;;;5041755;28;20390;-88
2022/04/12 03:21:52;;;;;;;11.97;4.93;;;;;;;;;;5040734;28;20879;-88
2022/04/12 03:24:22;;;;;;;7.40;4.90;;;;;;;;;;5041009;28;20803;-88
2022/04/12 03:26:48;;;;;;;6.80;4.63;;;;;;;;;;5022474;28;20490;-87
2022/04/12 03:29:14;;;;;;;5.40;4.60;;;;;;;;;;5039671;28;20402;-88
2022/04/12 03:31:40;;;;;;;12.60;4.50;;;;;;;;;;5040300;28;20864;-87
2022/04/12 03:34:06;;;;;;;9.40;5.30;;;;;;;;;;5040085;28;20442;-87
2022/04/12 03:36:32;;;;;;;5.90;5.30;;;;;;;;;;5022559;28;20414;-88
2022/04/12 03:38:58;;;;;;;6.20;4.40;;;;;;;;;;5042960;28;20449;-88
2022/04/12 03:41:25;;;;;;;5.40;4.53;;;;;;;;;;5024035;28;20433;-87
2022/04/12 03:43:51;;;;;;;10.07;4.70;;;;;;;;;;5042297;28;20461;-87
2022/04/12 03:46:18;;;;;;;7.27;4.83;;;;;;;;;;5043402;28;20446;-86
2022/04/12 03:48:44;;;;;;;9.13;4.57;;;;;;;;;;5040666;28;20405;-86
2022/04/12 03:51:11;;;;;;;7.03;4.97;;;;;;;;;;5039982;28;20422;-86
2022/04/12 03:53:37;;;;;;;4.57;4.00;;;;;;;;;;5006224;28;20490;-86
2022/04/12 03:56:07;;;;;;;5.97;4.93;;;;;;;;;;5040692;28;20402;-87
2022/04/12 03:58:33;;;;;;;6.40;4.70;;;;;;;;;;5041258;28;20413;-86
2022/04/12 04:00:59;;;;;;;5.70;4.93;;;;;;;;;;5041545;28;20418;-87
2022/04/12 04:03:25;;;;;;;9.03;4.90;;;;;;;;;;5041304;28;20837;-86
2022/04/12 04:05:51;;;;;;;8.43;6.27;;;;;;;;;;5023513;28;20410;-86
2022/04/12 04:08:17;;;;;;;9.70;4.67;;;;;;;;;;5041632;28;20402;-87
2022/04/12 04:10:43;;;;;;;5.50;4.87;;;;;;;;;;5041040;28;20415;-87
2022/04/12 04:13:09;;;;;;;5.20;4.20;;;;;;;;;;5041795;28;20402;-87
2022/04/12 04:15:36;;;;;;;7.93;4.60;;;;;;;;;;5023894;28;20857;-87
2022/04/12 04:18:02;;;;;;;4.70;4.13;;;;;;;;;;5042254;28;20472;-87
2022/04/12 04:20:28;;;;;;;9.20;5.00;;;;;;;;;;5042206;28;20990;-86
2022/04/12 04:22:54;;;;;;;6.00;4.47;;;;;;;;;;5041377;28;20445;-87
2022/04/12 04:25:20;;;;;;;6.33;4.30;;;;;;;;;;5042438;28;20407;-87
2022/04/12 04:27:46;;;;;;;5.50;4.20;;;;;;;;;;5041621;28;20401;-88
2022/04/12 04:30:13;;;;;;;4.67;3.80;;;;;;;;;;5041648;28;20480;-87
2022/04/12 04:32:39;;;;;;;9.20;4.67;;;;;;;;;;5024113;28;20517;-87
2022/04/12 04:35:07;;;;;;;6.80;3.83;;;;;;;;;;5041951;28;20752;-87
2022/04/12 04:37:33;;;;;;;4.47;3.43;;;;;;;;;;5024515;28;20441;-87
2022/04/12 04:39:59;;;;;;;7.40;4.60;;;;;;;;;;5031628;28;20771;-86
2022/04/12 04:42:27;;;;;;;15.33;5.80;;;;;;;;;;5041362;28;20433;-87
2022/04/12 04:44:53;;;;;;;10.10;5.00;;;;;;;;;;5040557;28;20409;-87
2022/04/12 04:47:19;;;;;;;12.17;5.43;;;;;;;;;;5041404;28;20434;-88
2022/04/12 04:49:45;;;;;;;8.10;5.73;;;;;;;;;;5040306;28;20751;-88
2022/04/12 04:52:11;;;;;;;9.47;4.53;;;;;;;;;;5041678;28;20435;-87
2022/04/12 04:54:37;;;;;;;8.37;4.50;;;;;;;;;;5042695;28;20822;-87
2022/04/12 04:57:03;;;;;;;13.87;9.10;;;;;;;;;;5042102;28;20411;-88
2022/04/12 04:59:29;;;;;;;11.23;7.23;;;;;;;;;;5041876;28;20407;-88
2022/04/12 05:01:55;;;;;;;6.70;4.47;;;;;;;;;;5042334;28;20462;-87
2022/04/12 05:04:21;;;;;;;9.33;4.60;;;;;;;;;;5041862;28;20446;-88
2022/04/12 05:06:47;;;;;;;6.23;4.47;;;;;;;;;;5042247;28;20409;-88
2022/04/12 05:09:13;;;;;;;6.30;4.33;;;;;;;;;;5024945;28;20430;-87
2022/04/12 05:11:39;;;;;;;8.23;4.90;;;;;;;;;;5038485;28;20444;-86
2022/04/12 05:14:05;;;;;;;5.63;4.63;;;;;;;;;;5038274;28;20418;-86
2022/04/12 05:16:31;;;;;;;7.43;4.43;;;;;;;;;;5038149;28;20407;-86
2022/04/12 05:18:57;;;;;;;13.07;5.23;;;;;;;;;;5040250;28;20407;-87
2022/04/12 05:21:23;;;;;;;7.90;4.87;;;;;;;;;;5022158;28;20505;-87
2022/04/12 05:23:49;;;;;;;13.20;6.80;;;;;;;;;;5040955;28;20501;-86
2022/04/12 05:26:15;;;;;;;9.10;4.80;;;;;;;;;;5050736;28;20473;-87
2022/04/12 05:28:41;;;;;;;10.43;5.90;;;;;;;;;;5055792;28;20402;-87
2022/04/12 05:31:07;;;;;;;13.83;6.77;;;;;;;;;;5050537;28;20426;-88
2022/04/12 05:33:33;;;;;;;6.17;4.93;;;;;;;;;;5044067;28;20425;-87
2022/04/12 05:35:59;;;;;;;7.83;4.60;;;;;;;;;;5025012;28;20902;-87
2022/04/12 05:38:25;;;;;;;7.33;4.90;;;;;;;;;;5024981;28;20410;-87
2022/04/12 05:40:51;;;;;;;6.80;5.70;;;;;;;;;;5042601;28;20442;-87
2022/04/12 05:43:18;;;;;;;6.80;4.90;;;;;;;;;;5042549;28;20457;-87
2022/04/12 05:45:44;;;;;;;8.30;4.73;;;;;;;;;;5042377;28;20407;-88
2022/04/12 05:48:10;;;;;;;7.53;5.10;;;;;;;;;;5042433;28;20398;-86
2022/04/12 05:50:36;;;;;;;11.37;5.10;;;;;;;;;;5042042;28;20537;-87
2022/04/12 05:53:02;;;;;;;6.30;4.70;;;;;;;;;;5023875;28;20410;-88
2022/04/12 05:55:28;;;;;;;9.70;4.50;;;;;;;;;;5024536;28;20833;-87
2022/04/12 05:57:59;;;;;;;18.20;4.90;;;;;;;;;;5042000;28;20410;-88
2022/04/12 06:00:29;;;;;;;9.47;4.77;;;;;;;;;;5042080;28;20411;-87
2022/04/12 06:02:56;;;;;;;7.50;5.10;;;;;;;;;;5041385;28;20564;-88
2022/04/12 06:05:23;;;;;;;5.37;4.47;;;;;;;;;;5023306;28;20414;-88
2022/04/12 06:07:49;;;;;;;6.27;4.27;;;;;;;;;;5042071;28;20402;-88
2022/04/12 06:10:19;;;;;;;11.30;5.33;;;;;;;;;;5041717;28;20472;-88
2022/04/12 06:12:45;;;;;;;5.73;4.60;;;;;;;;;;5041691;28;20809;-87
2022/04/12 06:15:11;;;;;;;5.50;4.90;;;;;;;;;;5023620;28;20433;-87
2022/04/12 06:17:38;;;;;;;10.57;4.47;;;;;;;;;;5041323;28;20398;-87
2022/04/12 06:20:05;;;;;;;10.70;5.23;;;;;;;;;;5041537;28;20877;-87
2022/04/12 06:22:32;;;;;;;7.40;4.70;;;;;;;;;;5040889;28;20774;-88
2022/04/12 06:24:58;;;;;;;8.00;5.33;;;;;;;;;;5041586;28;20399;-88
2022/04/12 06:27:33;;;;;;;8.20;4.27;;;;;;;;;;5041067;28;20398;-88
2022/04/12 06:30:03;;;;;;;9.60;4.60;;;;;;;;;;5041161;28;20826;-88
2022/04/12 06:32:29;;;;;;;7.37;4.90;;;;;;;;;;5041167;28;20441;-88
2022/04/12 06:34:55;;;;;;;6.33;4.53;;;;;;;;;;5041408;28;20490;-88
2022/04/12 06:37:24;;;;;;;7.57;5.30;;;;;;;;;;5041930;28;20398;-87
2022/04/12 06:39:50;;;;;;;5.30;4.53;;;;;;;;;;5045035;28;20395;-88
2022/04/12 06:42:19;;;;;;;5.63;4.60;;;;;;;;;;5042891;28;20411;-87
2022/04/12 06:45:05;;;;;;;10.27;5.50;;;;;;;;;;5042885;28;20843;-87
2022/04/12 06:47:34;;;;;;;9.40;6.17;;;;;;;;;;5021835;28;20414;-87
2022/04/12 06:50:00;;;;;;;8.07;6.23;;;;;;;;;;5040248;28;20871;-88
2022/04/12 06:52:26;;;;;;;6.90;4.80;;;;;;;;;;5040566;28;20983;-88
2022/04/12 06:54:52;;;;;;;15.13;5.07;;;;;;;;;;5040158;28;20468;-88
2022/04/12 06:57:19;;;;;;;6.47;4.20;;;;;;;;;;5042053;28;20418;-88
2022/04/12 06:59:45;;;;;;;8.73;4.80;;;;;;;;;;5041517;28;20814;-86
2022/04/12 07:02:11;;;;;;;10.60;4.97;;;;;;;;;;5041182;28;20426;-88
2022/04/12 07:04:37;;;;;;;8.00;5.10;;;;;;;;;;5041308;28;20450;-88
2022/04/12 07:07:03;;;;;;;9.87;5.63;;;;;;;;;;5040663;28;20394;-88
2022/04/12 07:09:30;;;;;;;11.60;5.10;;;;;;;;;;5040767;28;20420;-88
2022/04/12 07:11:59;;;;;;;11.70;4.43;;;;;;;;;;5041292;28;20442;-88
2022/04/12 07:14:26;;;;;;;9.17;5.23;;;;;;;;;;5041368;28;20410;-86
2022/04/12 07:16:52;;;;;;;7.83;4.70;;;;;;;;;;5050362;28;20452;-86
2022/04/12 07:19:19;;;;;;;5.50;4.80;;;;;;;;;;5061810;28;20849;-88
2022/04/12 07:21:48;;;;;;;9.83;6.47;;;;;;;;;;5061303;28;20452;-85
2022/04/12 07:24:14;;;;;;;11.70;5.73;;;;;;;;;;5060844;28;21019;-85
2022/04/12 07:26:41;;;;;;;9.40;5.23;;;;;;;;;;5042968;28;20426;-87
2022/04/12 07:29:34;;;;;;;6.83;4.53;;;;;;;;;;5061293;28;20485;-87
2022/04/12 07:32:00;;;;;;;5.97;4.10;;;;;;;;;;4956674;28;20452;-85
2022/04/12 07:34:26;;;;;;;7.18;5.00;;;;;;;;;;5019276;28;20429;-85
2022/04/12 07:36:55;;;;;;;6.53;4.13;;;;;;;;;;5058452;28;20520;-85
2022/04/12 07:39:22;;;;;;;6.17;4.33;;;;;;;;;;5054850;28;20463;-85
2022/04/12 07:41:49;;;;;;;4.80;4.30;;;;;;;;;;5063900;28;20457;-84
2022/04/12 07:44:19;;;;;;;5.40;3.87;;;;;;;;;;5072713;28;20840;-85
2022/04/12 07:46:48;;;;;;;5.80;4.43;;;;;;;;;;5067919;28;20414;-86
2022/04/12 07:49:33;;;;;;;4.97;4.23;;;;;;;;;;5064442;28;20417;-87
2022/04/12 07:52:03;;;;;;;6.13;4.07;;;;;;;;;;5061704;28;20438;-89
2022/04/12 07:54:29;;;;;;;9.10;3.33;;;;;;;;;;5044086;28;20421;-86
2022/04/12 07:56:55;;;;;;;3.90;3.47;;;;;;;;;;5059890;28;20933;-84
2022/04/12 07:59:21;;;;;;;5.57;3.63;;;;;;;;;;5065418;28;20459;-86
2022/04/12 08:01:47;;;;;;;5.20;3.50;;;;;;;;;;5065666;28;20441;-84
2022/04/12 08:04:13;;;;;;;3.83;2.87;;;;;;;;;;5063418;28;20465;-85
2022/04/12 08:06:39;;;;;;;7.07;3.77;;;;;;;;;;5059465;28;20483;-87
2022/04/12 08:09:06;;;;;;;6.47;3.97;;;;;;;;;;5059446;28;20419;-87
2022/04/12 08:11:32;;;;;;;4.83;3.87;;;;;;;;;;5060113;28;20484;-86
2022/04/12 08:13:58;;;;;;;4.90;3.80;;;;;;;;;;5059209;28;20406;-87
2022/04/12 08:16:24;;;;;;;6.03;3.80;;;;;;;;;;5060631;28;20458;-88
2022/04/12 08:18:50;;;;;;;4.40;3.20;;;;;;;;;;5061936;28;20912;-88
2022/04/12 08:21:30;;;;;;;6.00;3.87;;;;;;;;;;5062166;28;20417;-88
2022/04/12 08:23:57;;;;;;;5.33;3.80;;;;;;;;;;5049087;28;20453;-87
2022/04/12 08:26:24;;;;;;;5.20;3.97;;;;;;;;;;5070386;28;20413;-89
2022/04/12 08:28:50;;;;;;;4.97;3.13;;;;;;;;;;5063461;28;20420;-89
2022/04/12 08:31:17;;;;;;;5.53;3.67;;;;;;;;;;5060168;28;20433;-86
2022/04/12 08:33:43;;;;;;;5.83;3.20;;;;;;;;;;5067131;28;20430;-84
2022/04/12 08:36:09;;;;;;;6.27;3.40;;;;;;;;;;5076467;28;20425;-86
2022/04/12 08:38:35;;;;;;;4.40;2.40;;;;;;;;;;5075084;28;20421;-87
2022/04/12 08:41:02;;;;;;;5.18;2.92;;;;;;;;;;5046218;28;20423;-87
2022/04/12 08:43:29;;;;;;;6.35;2.50;;;;;;;;;;5079744;28;20434;-88
2022/04/12 08:45:56;;;;;;;4.23;2.40;;;;;;;;;;5082782;28;20169;-88
2022/04/12 08:48:23;;;;;;;5.60;2.90;;;;;;;;;;5082956;28;20400;-88
2022/04/12 08:50:49;;;;;;;4.23;2.47;;;;;;;;;;5069668;28;20438;-88
2022/04/12 08:53:17;;;;;;;2.80;2.20;;;;;;;;;;5063279;28;20500;-88
2022/04/12 08:55:45;;;;;;;4.80;2.37;;;;;;;;;;5062602;28;20422;-88
2022/04/12 08:58:13;;;;;;;3.20;2.37;;;;;;;;;;5061258;28;20413;-88
2022/04/12 09:00:39;;;;;;;3.43;2.20;;;;;;;;;;5060997;28;20750;-88
2022/04/12 09:03:05;;;;;;;6.07;2.23;;;;;;;;;;5060845;28;20549;-88
2022/04/12 09:05:35;;;;;;;4.27;2.70;;;;;;;;;;5060406;28;20409;-88
2022/04/12 09:11:29;;;;;;;;;;;;;;;;;;;;;
2022/04/12 09:17:35;;;;;;;6.13;2.40;;;;;;;;;;4926965;29;20436;-86
2022/04/12 09:20:11;;;;;;;8.63;2.57;;;;;;;;;;5062904;28;20440;-87
2022/04/12 09:22:43;;;;;;;3.93;2.20;;;;;;;;;;5076279;28;20429;-89
2022/04/12 09:25:34;;;;;;;5.93;1.97;;;;;;;;;;5054108;28;20416;-88
2022/04/12 09:28:05;;;;;;;4.18;2.10;;;;;;;;;;5047842;28;20518;-87
2022/04/12 09:30:44;;;;;;;9.03;2.67;;;;;;;;;;5062983;28;20219;-87
2022/04/12 09:33:10;;;;;;;7.80;2.60;;;;;;;;;;5045882;28;20453;-88
2022/04/12 09:35:37;;;;;;;4.53;2.63;;;;;;;;;;5045639;28;20497;-88
2022/04/12 09:38:04;;;;;;;4.87;2.73;;;;;;;;;;5063815;28;20478;-88
2022/04/12 09:40:30;;;;;;;8.07;2.40;;;;;;;;;;5062585;28;20406;-87
2022/04/12 09:43:01;;;;;;;4.13;2.97;;;;;;;;;;5062116;28;20464;-86
2022/04/12 09:45:27;;;;;;;2.53;1.90;;;;;;;;;;5044747;28;20873;-88
2022/04/12 09:47:57;;;;;;;4.30;2.60;;;;;;;;;;5061618;28;20487;-87
2022/04/12 09:50:25;;;;;;;13.93;2.77;;;;;;;;;;5043682;28;20397;-87
2022/04/12 09:52:55;;;;;;;7.53;2.37;;;;;;;;;;5063404;28;20808;-88
2022/04/12 09:55:39;;;;;;;4.70;2.20;;;;;;;;;;5061019;28;20794;-88
2022/04/12 09:58:06;;;;;;;5.00;1.87;;;;;;;;;;5060082;28;20390;-87
2022/04/12 10:00:33;;;;;;;3.27;2.00;;;;;;;;;;5059916;28;20409;-88
2022/04/12 10:03:05;;;;;;;5.53;2.17;;;;;;;;;;5062599;28;20553;-88
2022/04/12 10:05:32;;;;;;;3.30;1.87;;;;;;;;;;5062065;28;20472;-88
2022/04/12 10:07:58;;;;;;;3.77;1.77;;;;;;;;;;5060253;28;20397;-88
2022/04/12 10:10:28;;;;;;;4.20;2.17;;;;;;;;;;5062837;28;20887;-88
2022/04/12 10:12:55;;;;;;;3.30;1.70;;;;;;;;;;5063624;28;20406;-86
2022/04/12 10:15:21;;;;;;;3.20;1.77;;;;;;;;;;5063797;28;20409;-88
2022/04/12 10:17:48;;;;;;;4.23;1.73;;;;;;;;;;5061451;28;20408;-88
2022/04/12 10:20:15;;;;;;;3.43;1.80;;;;;;;;;;5062491;28;20485;-88
2022/04/12 10:22:42;;;;;;;3.80;1.87;;;;;;;;;;5049814;28;20528;-88
2022/04/12 10:25:12;;;;;;;2.83;1.57;;;;;;;;;;5060508;28;20890;-87
2022/04/12 10:27:38;;;;;;;2.77;1.43;;;;;;;;;;5068662;28;20414;-87
2022/04/12 10:30:26;;;;;;;4.10;1.50;;;;;;;;;;5080007;28;20511;-87
2022/04/12 10:33:01;;;;;;;3.97;1.70;;;;;;;;;;5069388;28;20398;-86
2022/04/12 10:35:28;;;;;;;2.70;1.50;;;;;;;;;;5062429;28;20458;-88
2022/04/12 10:37:57;;;;;;;4.80;1.53;;;;;;;;;;5063375;28;20417;-87
2022/04/12 10:40:26;;;;;;;3.20;1.17;;;;;;;;;;5063909;28;20901;-88
2022/04/12 10:42:54;;;;;;;1.90;1.20;;;;;;;;;;5045530;28;20859;-87
2022/04/12 10:45:28;;;;;;;5.00;1.70;;;;;;;;;;5062331;28;20417;-87
2022/04/12 10:47:58;;;;;;;3.03;1.90;;;;;;;;;;5063049;28;20410;-87
2022/04/12 10:50:24;;;;;;;4.13;1.40;;;;;;;;;;5061439;28;20906;-86
2022/04/12 10:52:50;;;;;;;6.97;1.63;;;;;;;;;;5035558;28;20882;-88
2022/04/12 10:55:16;;;;;;;2.80;1.63;;;;;;;;;;5053714;28;20790;-87
2022/04/12 10:57:42;;;;;;;2.87;1.50;;;;;;;;;;5058595;28;20429;-87
2022/04/12 11:00:10;;;;;;;4.93;1.60;;;;;;;;;;5024886;28;20426;-87
2022/04/12 11:02:41;;;;;;;3.77;1.40;;;;;;;;;;5042733;28;20494;-87
2022/04/12 11:05:10;;;;;;;2.93;1.53;;;;;;;;;;5043631;28;20406;-86
2022/04/12 11:07:37;;;;;;;3.43;1.33;;;;;;;;;;5042184;28;20903;-88
2022/04/12 11:10:13;;;;;;;3.10;1.70;;;;;;;;;;5041205;28;20403;-87
2022/04/12 11:12:43;;;;;;;3.67;1.30;;;;;;;;;;5042785;28;20501;-87
2022/04/12 11:15:24;;;;;;;2.73;1.80;;;;;;;;;;5047378;28;20425;-88
2022/04/12 11:18:04;;;;;;;6.40;2.10;;;;;;;;;;5058096;28;20500;-88
2022/04/12 11:20:31;;;;;;;2.70;2.07;;;;;;;;;;5068956;28;20428;-87
2022/04/12 11:22:59;;;;;;;3.37;2.57;;;;;;;;;;5049527;28;20473;-87
2022/04/12 11:25:28;;;;;;;4.37;3.30;;;;;;;;;;5043289;28;20409;-87
2022/04/12 11:27:57;;;;;;;4.80;3.33;;;;;;;;;;5057589;28;20409;-87
2022/04/12 11:33:25;;;;;;;5.55;3.47;;;;;;;;;;4977965;28;20454;-86
2022/04/12 11:38:56;;;;;;;5.50;4.10;;;;;;;;;;5058483;28;20507;-86
2022/04/12 11:41:23;;;;;;;10.67;3.97;;;;;;;;;;5059917;28;20433;-87
2022/04/12 11:44:00;;;;;;;5.33;3.23;;;;;;;;;;5041838;28;20453;-86
2022/04/12 11:46:29;;;;;;;7.10;3.70;;;;;;;;;;5041428;28;20410;-87
2022/04/12 11:49:05;;;;;;;6.87;3.40;;;;;;;;;;5059445;28;20398;-86
2022/04/12 11:51:44;;;;;;;5.70;3.70;;;;;;;;;;5032876;28;20469;-86
2022/04/12 11:54:44;;;;;;;4.80;3.13;;;;;;;;;;5021331;28;20452;-86
2022/04/12 11:57:24;;;;;;;4.43;3.00;;;;;;;;;;5038046;28;20953;-86
2022/04/12 12:00:08;;;;;;;5.20;3.63;;;;;;;;;;5061283;28;20381;-87
2022/04/12 12:02:38;;;;;;;4.43;3.57;;;;;;;;;;5044525;28;20436;-86
2022/04/12 12:05:15;;;;;;;7.40;3.70;;;;;;;;;;5045494;28;20830;-87
2022/04/12 12:07:43;;;;;;;6.27;3.80;;;;;;;;;;5044827;28;20435;-86
2022/04/12 12:10:14;;;;;;;7.70;3.40;;;;;;;;;;5046465;28;20488;-87
2022/04/12 12:12:46;;;;;;;4.50;3.20;;;;;;;;;;5046505;28;20452;-86
2022/04/12 12:15:16;;;;;;;6.50;4.47;;;;;;;;;;5046114;28;20511;-86
2022/04/12 12:17:49;;;;;;;7.83;4.73;;;;;;;;;;5064743;28;20456;-86
2022/04/12 12:20:20;;;;;;;4.80;4.20;;;;;;;;;;5046867;28;20485;-86
2022/04/12 12:23:14;;;;;;;10.00;4.80;;;;;;;;;;5062578;28;20447;-86
2022/04/12 12:29:30;;;;;;;;;;;;;;;;;;;;;
2022/04/12 13:06:24;;;;;;;5.07;3.70;;;;;;;;;;4976492;28;20441;-86
2022/04/12 13:09:10;;;;;;;5.20;4.17;;;;;;;;;;4945469;29;20854;-89
2022/04/12 13:18:33;;;;;;;9.70;4.27;;;;;;;;;;4962107;29;20501;-87
2022/04/12 13:21:18;;;;;;;6.77;4.20;;;;;;;;;;4945790;28;20457;-87
2022/04/12 13:25:05;;;;;;;8.63;4.30;;;;;;;;;;4982706;28;20609;-86
2022/04/12 13:36:30;;;;;;;;;;;;;;;;;;;;;
2022/04/12 13:45:53;;;;;;;5.93;4.93;;;;;;;;;;4917032;29;20439;-88
2022/04/12 13:55:14;;;;;;;6.30;4.33;;;;;;;;;;5026381;28;20472;-88
2022/04/12 13:57:39;;;;;;;4.37;3.80;;;;;;;;;;5043626;28;20444;-86
2022/04/12 14:06:04;;;;;;;5.97;4.47;;;;;;;;;;5050939;28;20476;-88
2022/04/12 14:08:31;;;;;;;9.10;4.43;;;;;;;;;;5042284;28;20542;-84
2022/04/12 14:11:01;;;;;;;10.10;4.67;;;;;;;;;;5039010;28;20458;-87
2022/04/12 14:13:41;;;;;;;7.60;4.27;;;;;;;;;;5042207;28;20419;-87
2022/04/12 14:16:42;;;;;;;7.60;4.40;;;;;;;;;;5033695;28;20785;-87
2022/04/12 14:22:04;;;;;;;7.80;5.40;;;;;;;;;;5041293;28;20426;-87
2022/04/12 14:30:51;;;;;;;4.73;3.93;;;;;;;;;;5037609;28;20194;-87
2022/04/12 14:33:24;;;;;;;5.90;4.37;;;;;;;;;;5039758;28;20409;-87
2022/04/12 14:36:10;;;;;;;;;;;;;;;;;;;;;
2022/04/12 14:38:49;;;;;;;7.97;4.30;;;;;;;;;;5029992;28;20616;-88
2022/04/12 14:44:51;;;;;;;4.53;3.90;;;;;;;;;;4945175;28;20210;-90
2022/04/12 14:47:54;;;;;;;;;;;;;;;;;;;;;
2022/04/12 14:57:18;;;;;;;4.07;3.20;;;;;;;;;;4944910;29;21042;-89
2022/04/12 14:59:47;;;;;;;5.33;3.17;;;;;;;;;;4922194;29;20975;-89
2022/04/12 15:02:17;;;;;;;4.95;3.28;;;;;;;;;;4919252;29;20442;-88
2022/04/12 15:04:50;;;;;;;5.38;3.05;;;;;;;;;;4934595;29;20440;-86
2022/04/12 15:07:18;;;;;;;5.93;3.15;;;;;;;;;;4937723;29;20483;-88
2022/04/12 15:09:45;;;;;;;6.80;2.80;;;;;;;;;;5056134;22;20463;-82
2022/04/12 15:12:11;;;;;;;7.70;3.00;;;;;;;;;;5063296;28;20175;-84
2022/04/12 15:14:37;;;;;;;3.83;2.27;;;;;;;;;;5063182;28;20439;-84
2022/04/12 15:17:03;;;;;;;6.50;3.53;;;;;;;;;;5062303;28;20571;-84
2022/04/12 15:19:29;;;;;;;6.10;2.60;;;;;;;;;;5050743;28;20451;-85
2022/04/12 15:21:55;;;;;;;5.33;2.47;;;;;;;;;;5033349;28;20418;-84
2022/04/12 15:24:25;;;;;;;2.67;1.80;;;;;;;;;;5047662;28;20549;-85
2022/04/12 15:26:54;;;;;;;3.20;1.93;;;;;;;;;;5049864;28;20417;-84
2022/04/12 15:29:20;;;;;;;2.93;2.33;;;;;;;;;;5038757;28;20492;-82
2022/04/12 15:31:46;;;;;;;9.40;3.27;;;;;;;;;;5030760;28;20425;-83
2022/04/12 15:34:13;;;;;;;4.07;1.80;;;;;;;;;;5056274;28;20921;-84
2022/04/12 15:36:39;;;;;;;4.20;2.20;;;;;;;;;;5066902;28;20416;-85
2022/04/12 15:39:05;;;;;;;4.07;1.97;;;;;;;;;;5059265;28;20555;-86
2022/04/12 15:41:31;;;;;;;3.67;2.10;;;;;;;;;;5058807;28;20409;-85
2022/04/12 15:43:58;;;;;;;6.33;2.50;;;;;;;;;;5048003;28;20941;-84
2022/04/12 15:46:24;;;;;;;5.80;2.27;;;;;;;;;;5027966;28;20488;-84
2022/04/12 15:48:50;;;;;;;5.00;2.30;;;;;;;;;;5045895;28;20890;-84
2022/04/12 15:51:17;;;;;;;5.15;2.55;;;;;;;;;;5032483;28;20423;-84
2022/04/12 15:53:43;;;;;;;5.80;2.03;;;;;;;;;;5047294;28;20636;-84
2022/04/12 15:56:10;;;;;;;3.30;2.10;;;;;;;;;;5035395;28;20450;-83
2022/04/12 15:58:40;;;;;;;3.13;1.87;;;;;;;;;;5037267;28;20444;-81
2022/04/12 16:01:06;;;;;;;3.70;2.43;;;;;;;;;;5048381;28;20421;-81
2022/04/12 16:03:32;;;;;;;3.67;2.30;;;;;;;;;;5051786;28;20544;-81
2022/04/12 16:05:58;;;;;;;4.40;1.70;;;;;;;;;;5044506;28;20430;-80
2022/04/12 16:08:25;;;;;;;8.23;2.30;;;;;;;;;;5042461;28;20440;-81
2022/04/12 16:10:51;;;;;;;4.47;2.20;;;;;;;;;;5043088;28;20387;-82
2022/04/12 16:13:17;;;;;;;5.40;1.90;;;;;;;;;;5044951;28;20837;-82
2022/04/12 16:15:43;;;;;;;3.30;1.90;;;;;;;;;;5042824;28;20418;-82
2022/04/12 16:18:09;;;;;;;5.00;1.93;;;;;;;;;;5041030;28;20406;-82
2022/04/12 16:20:35;;;;;;;4.97;2.47;;;;;;;;;;5041642;28;20794;-82
2022/04/12 16:23:01;;;;;;;5.00;2.70;;;;;;;;;;5056332;28;20438;-82
2022/04/12 16:25:27;;;;;;;5.53;2.90;;;;;;;;;;5050778;28;20168;-83
2022/04/12 16:27:57;;;;;;;4.27;3.03;;;;;;;;;;5043723;28;20506;-83
2022/04/12 16:30:24;;;;;;;6.60;2.75;;;;;;;;;;5056905;28;20443;-84
2022/04/12 16:32:50;;;;;;;7.13;2.70;;;;;;;;;;5047884;28;20180;-82
2022/04/12 16:35:17;;;;;;;3.90;2.70;;;;;;;;;;5056634;28;20504;-83
2022/04/12 16:37:43;;;;;;;4.23;2.67;;;;;;;;;;5049352;28;20437;-84
2022/04/12 16:40:10;;;;;;;5.80;2.80;;;;;;;;;;5036691;28;21001;-84
2022/04/12 16:42:36;;;;;;;3.87;2.47;;;;;;;;;;5042921;28;20786;-83